createdAt,value
2018-11-04T00:00:18.666Z,5.59
2018-11-04T00:02:48.190Z,5.60
2018-11-04T00:05:17.460Z,5.59
2018-11-04T00:07:47.488Z,5.59
2018-11-04T00:10:16.329Z,5.56
2018-11-04T00:12:45.529Z,5.56
2018-11-04T00:15:14.681Z,5.56
2018-11-04T00:17:43.443Z,5.54
2018-11-04T00:20:14.210Z,5.53
2018-11-04T00:22:43.806Z,5.52
2018-11-04T00:25:14.030Z,5.51
2018-11-04T00:27:43.631Z,5.51
2018-11-04T00:30:18.374Z,5.51
2018-11-04T00:32:47.016Z,5.51
2018-11-04T00:35:15.507Z,5.47
2018-11-04T00:37:44.195Z,5.46
2018-11-04T00:40:12.994Z,5.46
2018-11-04T00:45:16.332Z,5.45
2018-11-04T00:47:44.799Z,5.44
2018-11-04T00:50:15.180Z,5.43
2018-11-04T00:52:44.206Z,5.42
2018-11-04T00:55:13.931Z,5.42
2018-11-04T00:57:42.816Z,5.41
2018-11-04T01:00:16.388Z,5.41
2018-11-04T01:02:45.985Z,5.40
2018-11-04T01:05:14.572Z,5.42
2018-11-04T01:07:43.088Z,5.41
2018-11-04T01:10:12.610Z,5.41
2018-11-04T01:12:42.446Z,5.40
2018-11-04T01:15:13.092Z,5.40
2018-11-04T01:17:42.458Z,5.37
2018-11-04T01:20:14.043Z,5.35
2018-11-04T01:25:17.677Z,5.36
2018-11-04T01:27:46.226Z,5.37
2018-11-04T01:30:17.608Z,5.36
2018-11-04T01:32:46.277Z,5.37
2018-11-04T01:35:14.956Z,5.37
2018-11-04T01:37:43.435Z,5.37
2018-11-04T01:40:12.039Z,5.36
2018-11-04T01:42:40.754Z,5.37
2018-11-04T01:45:11.255Z,5.37
2018-11-04T01:47:39.976Z,5.36
2018-11-04T01:50:10.969Z,5.35
2018-11-04T01:52:39.404Z,5.35
2018-11-04T01:55:09.513Z,5.34
2018-11-04T01:57:38.813Z,5.34
2018-11-04T02:00:11.601Z,5.32
2018-11-04T02:02:40.196Z,5.31
2018-11-04T02:05:10.614Z,5.32
2018-11-04T02:07:39.144Z,5.33
2018-11-04T02:10:09.017Z,5.32
2018-11-04T02:12:37.515Z,5.34
2018-11-04T02:15:08.534Z,5.34
2018-11-04T02:17:38.039Z,5.35
2018-11-04T02:20:08.253Z,5.35
2018-11-04T02:22:36.657Z,5.34
2018-11-04T02:25:05.739Z,5.35
2018-11-04T02:27:34.937Z,5.32
2018-11-04T02:30:03.815Z,5.33
2018-11-04T02:32:33.374Z,5.33
2018-11-04T02:35:01.887Z,5.34
2018-11-04T02:37:30.400Z,5.34
2018-11-04T02:39:59.092Z,5.34
2018-11-04T02:42:28.272Z,5.35
2018-11-04T02:44:56.854Z,5.34
2018-11-04T02:47:25.754Z,5.33
2018-11-04T02:49:54.900Z,5.35
2018-11-04T02:52:23.574Z,5.36
2018-11-04T02:54:52.108Z,5.35
2018-11-04T02:57:20.891Z,5.35
2018-11-04T02:59:49.583Z,5.35
2018-11-04T03:02:18.165Z,5.36
2018-11-04T03:04:46.769Z,5.36
2018-11-04T03:07:15.261Z,5.35
2018-11-04T03:09:44.521Z,5.36
2018-11-04T03:12:13.434Z,5.34
2018-11-04T03:14:41.931Z,5.34
2018-11-04T03:17:10.492Z,5.35
2018-11-04T03:19:40.129Z,5.36
2018-11-04T03:22:09.240Z,5.35
2018-11-04T03:24:38.183Z,5.35
2018-11-04T03:27:06.837Z,5.33
2018-11-04T03:29:36.231Z,5.32
2018-11-04T03:32:04.879Z,5.34
2018-11-04T03:34:33.492Z,5.35
2018-11-04T03:37:02.085Z,5.39
2018-11-04T03:39:30.488Z,5.43
2018-11-04T03:41:59.120Z,5.46
2018-11-04T03:44:27.643Z,5.48
2018-11-04T03:46:56.438Z,5.55
2018-11-04T03:49:24.898Z,5.61
2018-11-04T03:51:53.384Z,5.67
2018-11-04T03:54:22.022Z,5.72
2018-11-04T03:56:50.553Z,5.74
2018-11-04T03:59:19.109Z,5.81
2018-11-04T04:01:47.668Z,5.86
2018-11-04T04:04:16.325Z,5.88
2018-11-04T04:06:44.754Z,5.88
2018-11-04T04:09:14.663Z,5.89
2018-11-04T04:11:43.062Z,5.89
2018-11-04T04:14:11.488Z,5.91
2018-11-04T04:16:40.124Z,5.90
2018-11-04T04:19:09.232Z,5.89
2018-11-04T04:21:37.657Z,5.84
2018-11-04T04:24:06.438Z,5.81
2018-11-04T04:26:34.978Z,5.77
2018-11-04T04:29:03.515Z,5.71
2018-11-04T04:31:31.955Z,5.68
2018-11-04T04:34:05.864Z,5.66
2018-11-04T04:36:34.293Z,5.64
2018-11-04T04:39:06.897Z,5.65
2018-11-04T04:41:35.340Z,5.64
2018-11-04T04:44:03.903Z,5.65
2018-11-04T04:46:32.313Z,5.65
2018-11-04T04:49:01.175Z,5.64
2018-11-04T04:51:29.763Z,5.64
2018-11-04T04:53:58.421Z,5.65
2018-11-04T04:56:27.877Z,5.66
2018-11-04T04:58:56.430Z,5.66
2018-11-04T05:01:25.217Z,5.68
2018-11-04T05:04:00.149Z,5.71
2018-11-04T05:06:28.540Z,5.71
2018-11-04T05:08:57.381Z,5.73
2018-11-04T05:11:26.278Z,5.74
2018-11-04T05:13:56.565Z,5.78
2018-11-04T05:16:25.297Z,5.81
2018-11-04T05:18:53.861Z,5.84
2018-11-04T05:21:22.310Z,5.88
2018-11-04T05:23:50.772Z,5.90
2018-11-04T05:26:19.610Z,5.93
2018-11-04T05:28:48.188Z,5.96
2018-11-04T05:31:16.857Z,5.99
2018-11-04T05:33:45.368Z,6.04
2018-11-04T05:36:13.875Z,6.05
2018-11-04T05:38:42.494Z,6.04
2018-11-04T05:41:10.902Z,6.03
2018-11-04T05:43:39.319Z,6.01
2018-11-04T05:46:08.138Z,5.99
2018-11-04T05:48:36.540Z,5.98
2018-11-04T05:51:05.218Z,5.98
2018-11-04T05:53:33.945Z,6.00
2018-11-04T05:56:05.318Z,6.06
2018-11-04T05:58:33.837Z,6.09
2018-11-04T06:01:02.521Z,6.14
2018-11-04T06:03:31.013Z,6.19
2018-11-04T06:05:59.520Z,6.23
2018-11-04T06:08:27.942Z,6.24
2018-11-04T06:10:56.368Z,6.27
2018-11-04T06:13:25.550Z,6.29
2018-11-04T06:15:54.093Z,6.29
2018-11-04T06:18:23.441Z,6.29
2018-11-04T06:20:51.881Z,6.31
2018-11-04T06:23:20.576Z,6.32
2018-11-04T06:25:49.261Z,6.34
2018-11-04T06:28:18.421Z,6.36
2018-11-04T06:30:46.828Z,6.39
2018-11-04T06:33:15.336Z,6.43
2018-11-04T06:35:43.865Z,6.44
2018-11-04T06:38:12.965Z,6.47
2018-11-04T06:40:41.466Z,6.51
2018-11-04T06:43:11.047Z,6.53
2018-11-04T06:45:39.530Z,6.57
2018-11-04T06:48:08.049Z,6.59
2018-11-04T07:10:45.123Z,6.78
2018-11-04T07:13:13.570Z,6.81
2018-11-04T07:15:42.343Z,6.81
2018-11-04T07:18:10.774Z,6.86
2018-11-04T07:20:39.259Z,6.91
2018-11-04T07:23:07.811Z,6.95
2018-11-04T07:25:36.261Z,6.99
2018-11-04T07:28:05.012Z,7.02
2018-11-04T07:30:33.460Z,7.06
2018-11-04T07:33:01.855Z,7.07
2018-11-04T07:35:30.372Z,7.13
2018-11-04T07:37:58.775Z,7.17
2018-11-04T07:40:27.953Z,7.15
2018-11-04T07:42:56.418Z,7.21
2018-11-04T07:45:25.109Z,7.23
2018-11-04T07:47:53.674Z,7.23
2018-11-04T07:50:23.119Z,7.26
2018-11-04T07:52:51.688Z,7.26
2018-11-04T07:55:20.370Z,7.27
2018-11-04T07:57:49.043Z,7.26
2018-11-04T08:00:17.516Z,7.28
2018-11-04T08:02:46.141Z,7.27
2018-11-04T08:05:14.757Z,7.27
2018-11-04T08:07:43.362Z,7.30
2018-11-04T08:10:12.957Z,7.30
2018-11-04T08:12:41.603Z,7.37
2018-11-04T08:15:11.068Z,7.43
2018-11-04T08:17:40.398Z,7.50
2018-11-04T08:20:09.584Z,7.55
2018-11-04T08:22:38.733Z,7.61
2018-11-04T08:25:07.301Z,7.66
2018-11-04T08:27:36.750Z,7.75
2018-11-04T08:30:06.918Z,7.84
2018-11-04T08:32:35.521Z,7.94
2018-11-04T08:35:07.869Z,8.03
2018-11-04T08:37:36.492Z,8.11
2018-11-04T08:40:05.426Z,8.19
2018-11-04T08:42:33.822Z,8.27
2018-11-04T08:45:02.379Z,8.38
2018-11-04T08:47:31.121Z,8.44
2018-11-04T08:50:00.325Z,8.59
2018-11-04T08:52:28.899Z,8.66
2018-11-04T08:54:57.680Z,8.73
2018-11-04T08:57:26.267Z,8.79
2018-11-04T09:02:29.358Z,8.84
2018-11-04T09:05:01.653Z,8.83
2018-11-04T09:07:30.351Z,8.86
2018-11-04T09:10:02.493Z,8.89
2018-11-04T09:12:31.399Z,8.94
2018-11-04T09:15:00.044Z,8.98
2018-11-04T09:17:28.586Z,9.02
2018-11-04T09:19:58.192Z,9.06
2018-11-04T09:22:26.868Z,9.09
2018-11-04T09:27:30.561Z,9.16
2018-11-04T09:29:59.694Z,9.17
2018-11-04T09:32:28.794Z,9.22
2018-11-04T09:34:57.388Z,9.26
2018-11-04T09:37:25.816Z,9.32
2018-11-04T09:39:54.463Z,9.38
2018-11-04T09:42:23.116Z,9.45
2018-11-04T09:44:51.726Z,9.49
2018-11-04T09:47:20.264Z,9.54
2018-11-04T09:49:55.409Z,9.60
2018-11-04T09:52:23.893Z,9.69
2018-11-04T09:54:52.453Z,9.74
2018-11-04T09:57:24.797Z,9.81
2018-11-04T09:59:53.925Z,9.87
2018-11-04T10:02:22.591Z,9.93
2018-11-04T10:04:51.784Z,9.99
2018-11-04T10:07:20.359Z,10.06
2018-11-04T10:09:48.932Z,10.12
2018-11-04T10:12:17.883Z,10.17
2018-11-04T10:14:46.417Z,10.20
2018-11-04T10:17:15.690Z,10.25
2018-11-04T10:19:44.404Z,10.31
2018-11-04T10:22:12.905Z,10.38
2018-11-04T10:24:41.488Z,10.43
2018-11-04T10:27:09.970Z,10.50
2018-11-04T10:29:38.611Z,10.54
2018-11-04T10:32:07.241Z,10.61
2018-11-04T10:34:35.787Z,10.67
2018-11-04T10:37:04.354Z,10.74
2018-11-04T10:39:33.069Z,10.81
2018-11-04T10:42:01.661Z,10.84
2018-11-04T10:44:30.251Z,10.89
2018-11-04T10:46:58.894Z,10.95
2018-11-04T10:49:27.461Z,11.05
2018-11-04T10:51:56.052Z,11.15
2018-11-04T10:54:25.579Z,11.26
2018-11-04T10:56:54.334Z,11.32
2018-11-04T10:59:23.564Z,11.36
2018-11-04T11:01:52.008Z,11.43
2018-11-04T11:04:21.575Z,11.47
2018-11-04T11:06:50.079Z,11.56
2018-11-04T11:09:18.722Z,11.71
2018-11-04T11:11:47.308Z,11.79
2018-11-04T11:14:16.591Z,11.92
2018-11-04T11:16:45.463Z,12.07
2018-11-04T11:19:14.142Z,12.22
2018-11-04T11:21:42.789Z,12.31
2018-11-04T11:24:11.265Z,12.50
2018-11-04T11:26:40.069Z,12.67
2018-11-04T11:29:08.754Z,12.79
2018-11-04T11:31:37.213Z,12.84
2018-11-04T11:34:06.025Z,12.84
2018-11-04T11:36:34.982Z,12.84
2018-11-04T11:39:03.753Z,12.83
2018-11-04T11:41:33.601Z,12.86
2018-11-04T11:44:02.841Z,12.99
2018-11-04T11:46:31.425Z,13.13
2018-11-04T11:49:00.305Z,13.12
2018-11-04T11:51:29.157Z,13.19
2018-11-04T11:53:57.853Z,13.27
2018-11-04T11:56:27.664Z,13.43
2018-11-04T11:58:57.076Z,13.60
2018-11-04T12:01:25.790Z,13.67
2018-11-04T12:03:54.372Z,13.76
2018-11-04T12:06:22.962Z,13.83
2018-11-04T12:08:51.639Z,13.97
2018-11-04T12:11:20.129Z,14.40
2018-11-04T12:13:48.795Z,14.74
2018-11-04T12:16:17.940Z,14.84
2018-11-04T12:18:46.550Z,15.00
2018-11-04T12:21:15.192Z,15.30
2018-11-04T12:23:43.864Z,15.37
2018-11-04T12:26:12.761Z,15.26
2018-11-04T12:28:41.364Z,15.18
2018-11-04T12:31:09.834Z,15.11
2018-11-04T12:33:39.006Z,15.00
2018-11-04T12:36:07.741Z,15.06
2018-11-04T12:38:36.588Z,15.06
2018-11-04T12:41:05.674Z,15.04
2018-11-04T12:43:34.835Z,15.00
2018-11-04T12:46:03.805Z,14.91
2018-11-04T12:48:39.229Z,14.88
2018-11-04T12:51:13.652Z,15.16
2018-11-04T12:53:42.410Z,15.22
2018-11-04T12:56:11.008Z,15.51
2018-11-04T12:58:39.716Z,15.61
2018-11-04T13:01:09.188Z,15.80
2018-11-04T13:03:37.782Z,15.77
2018-11-04T13:06:06.703Z,15.73
2018-11-04T13:08:35.326Z,15.74
2018-11-04T13:11:03.826Z,15.57
2018-11-04T13:13:32.746Z,15.34
2018-11-04T13:16:01.291Z,15.13
2018-11-04T13:18:29.867Z,15.29
2018-11-04T13:20:58.450Z,15.59
2018-11-04T13:23:26.985Z,15.90
2018-11-04T13:25:56.195Z,16.09
2018-11-04T13:28:25.082Z,16.19
2018-11-04T13:30:53.663Z,16.19
2018-11-04T13:33:22.449Z,16.20
2018-11-04T13:35:50.922Z,16.24
2018-11-04T13:38:19.654Z,16.00
2018-11-04T13:40:54.688Z,16.01
2018-11-04T13:43:23.640Z,15.90
2018-11-04T13:45:52.173Z,15.88
2018-11-04T13:48:21.022Z,15.77
2018-11-04T13:50:49.649Z,15.57
2018-11-04T13:53:18.417Z,15.46
2018-11-04T13:55:47.057Z,15.36
2018-11-04T13:58:15.620Z,15.24
2018-11-04T14:00:44.126Z,15.12
2018-11-04T14:03:12.652Z,15.11
2018-11-04T14:05:41.401Z,15.02
2018-11-04T14:08:10.083Z,14.91
2018-11-04T14:10:39.365Z,14.77
2018-11-04T14:13:07.917Z,14.64
2018-11-04T14:15:38.342Z,14.53
2018-11-04T14:18:06.933Z,14.43
2018-11-04T14:20:35.875Z,14.33
2018-11-04T14:23:04.391Z,14.24
2018-11-04T14:25:36.247Z,14.19
2018-11-04T14:28:05.216Z,14.11
2018-11-04T14:30:33.825Z,14.08
2018-11-04T14:33:02.524Z,14.03
2018-11-04T14:35:31.320Z,13.99
2018-11-04T14:37:59.958Z,13.93
2018-11-04T14:40:32.387Z,13.85
2018-11-04T14:43:01.052Z,13.80
2018-11-04T14:45:29.657Z,13.74
2018-11-04T14:48:05.507Z,13.69
2018-11-04T14:50:34.300Z,13.63
2018-11-04T14:53:03.014Z,13.58
2018-11-04T14:55:31.620Z,13.52
2018-11-04T14:58:00.239Z,13.46
2018-11-04T15:00:33.404Z,13.39
2018-11-04T15:03:03.640Z,13.36
2018-11-04T15:05:32.481Z,13.31
2018-11-04T15:08:00.961Z,13.25
2018-11-04T15:10:29.509Z,13.21
2018-11-04T15:12:58.031Z,13.15
2018-11-04T15:15:26.685Z,13.11
2018-11-04T15:17:55.398Z,13.06
2018-11-04T15:20:24.036Z,13.01
2018-11-04T15:22:53.352Z,12.99
2018-11-04T15:25:22.889Z,12.96
2018-11-04T15:27:51.655Z,12.92
2018-11-04T15:30:20.428Z,12.88
2018-11-04T15:32:49.251Z,12.83
2018-11-04T15:35:18.499Z,12.79
2018-11-04T15:37:47.131Z,12.75
2018-11-04T15:40:17.646Z,12.69
2018-11-04T15:42:47.168Z,12.64
2018-11-04T15:45:16.455Z,12.58
2018-11-04T15:47:45.279Z,12.52
2018-11-04T15:50:15.565Z,12.48
2018-11-04T15:52:44.049Z,12.44
2018-11-04T15:55:12.668Z,12.39
2018-11-04T15:57:41.602Z,12.35
2018-11-04T16:00:13.441Z,12.30
2018-11-04T16:02:42.780Z,12.27
2018-11-04T16:07:45.846Z,12.16
2018-11-04T16:10:15.893Z,12.11
2018-11-04T16:12:44.641Z,12.06
2018-11-04T16:15:14.714Z,12.03
2018-11-04T16:17:43.949Z,12.00
2018-11-04T16:20:13.982Z,11.97
2018-11-04T16:22:43.327Z,11.92
2018-11-04T16:25:12.611Z,11.86
2018-11-04T16:27:41.642Z,11.82
2018-11-04T16:30:11.746Z,11.79
2018-11-04T16:32:41.222Z,11.75
2018-11-04T16:35:11.410Z,11.71
2018-11-04T16:37:41.575Z,11.69
2018-11-04T16:40:10.715Z,11.65
2018-11-04T16:42:39.556Z,11.62
2018-11-04T16:45:16.792Z,11.54
2018-11-04T16:47:45.492Z,11.53
2018-11-04T16:50:15.410Z,11.53
2018-11-04T16:52:45.337Z,11.50
2018-11-04T16:55:14.265Z,11.47
2018-11-04T16:57:43.382Z,11.45
2018-11-04T17:00:12.619Z,11.41
2018-11-04T17:02:41.178Z,11.39
2018-11-04T17:05:11.177Z,11.36
2018-11-04T17:07:39.988Z,11.33
2018-11-04T17:10:09.107Z,11.29
2018-11-04T17:12:37.869Z,11.26
2018-11-04T17:15:08.807Z,11.24
2018-11-04T17:17:37.320Z,11.19
2018-11-04T17:25:01.312Z,11.14
2018-11-04T17:27:33.494Z,11.10
2018-11-04T17:30:02.317Z,11.09
2018-11-04T17:35:05.153Z,11.05
2018-11-04T17:37:33.899Z,11.03
2018-11-04T17:40:02.788Z,11.01
2018-11-04T17:49:59.107Z,10.90
2018-11-04T17:52:28.288Z,10.87
2018-11-04T17:54:56.977Z,10.84
2018-11-04T17:57:25.725Z,10.82
2018-11-04T17:59:55.129Z,10.79
2018-11-04T18:02:23.917Z,10.77
2018-11-04T18:04:52.689Z,10.77
2018-11-04T18:07:21.192Z,10.75
2018-11-04T18:09:49.692Z,10.73
2018-11-04T18:12:19.108Z,10.73
2018-11-04T18:14:47.642Z,10.72
2018-11-04T18:17:16.286Z,10.70
2018-11-04T18:19:44.989Z,10.69
2018-11-04T18:22:13.651Z,10.66
2018-11-04T18:24:44.884Z,10.64
2018-11-04T18:27:13.344Z,10.63
2018-11-04T18:29:42.792Z,10.62
2018-11-04T18:32:13.915Z,10.60
2018-11-04T18:34:43.117Z,10.59
2018-11-04T18:37:11.761Z,10.57
2018-11-04T18:39:41.000Z,10.55
2018-11-04T18:42:09.734Z,10.52
2018-11-04T18:44:38.657Z,10.50
2018-11-04T18:47:07.684Z,10.49
2018-11-04T18:49:36.233Z,10.47
2018-11-04T18:52:05.231Z,10.45
2018-11-04T18:54:34.720Z,10.45
2018-11-04T18:57:04.331Z,10.45
2018-11-04T18:59:33.334Z,10.46
2018-11-04T19:02:02.543Z,10.45
2018-11-04T19:04:31.334Z,10.45
2018-11-04T19:07:00.061Z,10.45
2018-11-04T19:09:29.302Z,10.44
2018-11-04T19:11:58.095Z,10.44
2018-11-04T19:14:27.756Z,10.43
2018-11-04T19:16:56.718Z,10.41
2018-11-04T19:19:25.952Z,10.40
2018-11-04T19:21:55.398Z,10.41
2018-11-04T19:24:24.357Z,10.38
2018-11-04T19:26:53.091Z,10.36
2018-11-04T19:29:21.735Z,10.34
2018-11-04T19:31:51.481Z,10.35
2018-11-04T19:34:20.482Z,10.35
2018-11-04T19:39:23.512Z,10.29
2018-11-04T19:44:26.791Z,10.26
2018-11-04T19:46:55.303Z,10.26
2018-11-04T19:49:26.108Z,10.23
2018-11-04T19:52:06.397Z,10.22
2018-11-04T19:54:36.907Z,10.21
2018-11-04T19:57:05.714Z,10.19
2018-11-04T19:59:34.397Z,10.19
2018-11-04T20:02:03.171Z,10.16
2018-11-04T20:04:31.748Z,10.16
2018-11-04T20:07:00.241Z,10.16
2018-11-04T20:09:28.897Z,10.15
2018-11-04T20:11:58.302Z,10.15
2018-11-04T20:14:26.964Z,10.15
2018-11-04T20:16:55.600Z,10.16
2018-11-04T20:19:31.742Z,10.16
2018-11-04T20:22:00.220Z,10.17
2018-11-04T20:24:34.099Z,10.16
2018-11-04T20:27:02.678Z,10.16
2018-11-04T20:29:31.237Z,10.17
2018-11-04T20:32:05.311Z,10.17
2018-11-04T20:34:34.104Z,10.19
2018-11-04T20:37:02.885Z,10.19
2018-11-04T20:39:37.519Z,10.19
2018-11-04T20:42:06.582Z,10.19
2018-11-04T20:44:39.295Z,10.19
2018-11-04T20:47:07.949Z,10.18
2018-11-04T20:49:41.854Z,10.16
2018-11-04T20:52:10.696Z,10.16
2018-11-04T20:54:39.408Z,10.15
2018-11-04T20:57:13.080Z,10.14
2018-11-04T20:59:42.000Z,10.14
2018-11-04T21:02:10.973Z,10.11
2018-11-04T21:04:39.746Z,10.08
2018-11-04T21:07:09.232Z,10.06
2018-11-04T21:09:38.075Z,10.04
2018-11-04T21:12:07.224Z,10.01
2018-11-04T21:14:36.958Z,9.99
2018-11-04T21:17:05.882Z,9.98
2018-11-04T21:19:34.777Z,9.96
2018-11-04T21:22:03.410Z,9.94
2018-11-04T21:24:32.561Z,9.93
2018-11-04T21:27:01.207Z,9.94
2018-11-04T21:29:30.462Z,9.95
2018-11-04T21:31:58.653Z,9.94
2018-11-04T21:34:27.446Z,9.94
2018-11-04T21:36:55.932Z,9.93
2018-11-04T21:39:24.513Z,9.91
2018-11-04T21:41:56.074Z,9.86
2018-11-04T21:44:24.702Z,9.83
2018-11-04T21:46:53.386Z,9.80
2018-11-04T21:49:22.183Z,9.77
2018-11-04T21:51:51.554Z,9.77
2018-11-04T21:54:20.179Z,9.74
2018-11-04T21:56:49.113Z,9.73
2018-11-04T21:59:17.664Z,9.69
2018-11-04T22:01:46.245Z,9.67
2018-11-04T22:04:15.015Z,9.66
2018-11-04T22:06:44.148Z,9.65
2018-11-04T22:11:46.984Z,9.61
2018-11-04T22:14:15.736Z,9.60
2018-11-04T22:16:44.474Z,9.59
2018-11-04T22:19:13.069Z,9.60
2018-11-04T22:21:42.095Z,9.57
2018-11-04T22:24:10.649Z,9.56
2018-11-04T22:26:39.366Z,9.54
2018-11-04T22:29:08.374Z,9.54
2018-11-04T22:31:37.898Z,9.52
2018-11-04T22:34:07.335Z,9.51
2018-11-04T22:36:36.329Z,9.49
2018-11-04T22:39:06.614Z,9.49
2018-11-04T22:41:35.133Z,9.47
2018-11-04T22:44:04.757Z,9.45
2018-11-04T22:46:33.562Z,9.44
2018-11-04T22:49:02.965Z,9.44
2018-11-04T22:51:31.677Z,9.40
2018-11-04T22:54:00.462Z,9.39
2018-11-04T22:56:29.072Z,9.36
2018-11-04T22:58:57.805Z,9.31
2018-11-04T23:01:26.499Z,9.31
2018-11-04T23:03:55.065Z,9.29
2018-11-04T23:06:23.877Z,9.28
2018-11-04T23:08:52.472Z,9.28
2018-11-04T23:11:21.757Z,9.28
2018-11-04T23:13:50.320Z,9.26
2018-11-04T23:16:18.923Z,9.24
2018-11-04T23:18:47.544Z,9.21
2018-11-04T23:21:15.983Z,9.22
2018-11-04T23:23:44.462Z,9.19
2018-11-04T23:26:13.157Z,9.16
2018-11-04T23:28:42.806Z,9.14
2018-11-04T23:31:11.348Z,9.13
2018-11-04T23:33:39.826Z,9.13
2018-11-04T23:36:09.316Z,9.12
2018-11-04T23:38:37.954Z,9.09
2018-11-04T23:41:06.930Z,9.08
2018-11-04T23:43:36.228Z,9.08
2018-11-04T23:46:05.252Z,9.07
2018-11-04T23:48:33.784Z,9.05
2018-11-04T23:51:02.270Z,9.04
2018-11-04T23:53:31.231Z,9.01
2018-11-04T23:56:00.483Z,9.00
2018-11-04T23:58:29.037Z,8.99
